createdAt,value
2018-09-02T00:00:09.016Z,2.40
2018-09-02T00:02:37.368Z,2.10
2018-09-02T00:05:05.676Z,2.57
2018-09-02T00:07:34.006Z,2.47
2018-09-02T00:10:02.337Z,2.00
2018-09-02T00:12:30.696Z,2.30
2018-09-02T00:14:59.024Z,2.10
2018-09-02T00:17:27.390Z,2.90
2018-09-02T00:19:55.905Z,2.77
2018-09-02T00:22:25.813Z,2.40
2018-09-02T00:24:54.162Z,2.13
2018-09-02T00:27:23.631Z,2.70
2018-09-02T00:29:52.760Z,2.17
2018-09-02T00:32:21.628Z,2.50
2018-09-02T00:34:49.939Z,2.70
2018-09-02T00:37:18.311Z,2.33
2018-09-02T00:39:46.688Z,3.07
2018-09-02T00:42:14.952Z,3.10
2018-09-02T00:44:43.273Z,2.70
2018-09-02T00:47:11.592Z,2.83
2018-09-02T00:49:39.893Z,3.23
2018-09-02T00:52:08.201Z,3.27
2018-09-02T00:54:36.524Z,3.03
2018-09-02T00:57:05.108Z,2.80
2018-09-02T00:59:33.413Z,3.20
2018-09-02T01:02:01.707Z,3.17
2018-09-02T01:04:29.992Z,2.93
2018-09-02T01:06:58.333Z,3.60
2018-09-02T01:09:26.703Z,3.60
2018-09-02T01:11:55.001Z,3.47
2018-09-02T01:14:23.352Z,4.77
2018-09-02T01:16:51.673Z,4.53
2018-09-02T01:19:20.023Z,3.43
2018-09-02T01:21:54.806Z,3.80
2018-09-02T01:24:23.141Z,3.87
2018-09-02T01:26:51.481Z,4.30
2018-09-02T01:29:19.858Z,3.80
2018-09-02T01:31:48.147Z,4.33
2018-09-02T01:34:16.455Z,4.00
2018-09-02T01:36:44.903Z,4.03
2018-09-02T01:39:13.228Z,4.47
2018-09-02T01:41:41.646Z,4.57
2018-09-02T01:44:09.995Z,4.50
2018-09-02T01:46:38.319Z,4.70
2018-09-02T01:49:06.687Z,4.90
2018-09-02T01:51:35.002Z,4.70
2018-09-02T01:54:03.336Z,4.63
2018-09-02T01:56:31.625Z,5.13
2018-09-02T01:58:59.919Z,5.07
2018-09-02T02:01:28.234Z,5.40
2018-09-02T02:03:56.589Z,5.13
2018-09-02T02:06:24.936Z,4.40
2018-09-02T02:08:53.304Z,5.30
2018-09-02T02:11:21.645Z,5.47
2018-09-02T02:13:49.969Z,5.60
2018-09-02T02:16:18.272Z,4.97
2018-09-02T02:18:46.664Z,5.43
2018-09-02T02:21:14.974Z,5.60
2018-09-02T02:23:43.307Z,5.60
2018-09-02T02:26:11.647Z,5.53
2018-09-02T02:28:40.056Z,6.03
2018-09-02T02:31:08.368Z,5.73
2018-09-02T02:33:36.687Z,5.03
2018-09-02T02:36:05.200Z,6.10
2018-09-02T02:38:33.564Z,5.83
2018-09-02T02:41:01.856Z,6.67
2018-09-02T02:43:30.159Z,5.80
2018-09-02T02:45:58.502Z,5.20
2018-09-02T02:48:26.835Z,5.03
2018-09-02T02:50:55.278Z,6.10
2018-09-02T02:53:23.674Z,5.53
2018-09-02T02:55:51.981Z,8.87
2018-09-02T02:58:20.282Z,7.90
2018-09-02T03:00:48.803Z,13.60
2018-09-02T03:03:17.139Z,22.07
2018-09-02T03:05:45.466Z,18.30
2018-09-02T03:08:13.753Z,13.73
2018-09-02T03:10:44.506Z,9.53
2018-09-02T03:13:12.779Z,8.73
2018-09-02T03:15:41.082Z,6.50
2018-09-02T03:18:09.462Z,6.10
2018-09-02T03:20:37.799Z,5.57
2018-09-02T03:23:06.107Z,6.33
2018-09-02T03:25:34.401Z,6.40
2018-09-02T03:28:02.710Z,6.63
2018-09-02T03:30:31.059Z,5.87
2018-09-02T03:32:59.395Z,6.30
2018-09-02T03:35:27.704Z,6.60
2018-09-02T03:37:56.046Z,6.57
2018-09-02T03:40:24.360Z,6.53
2018-09-02T03:42:52.700Z,6.47
2018-09-02T03:45:21.056Z,5.43
2018-09-02T03:47:49.478Z,6.30
2018-09-02T03:50:17.747Z,6.47
2018-09-02T03:52:46.128Z,6.33
2018-09-02T03:55:14.433Z,6.83
2018-09-02T03:57:42.763Z,7.80
2018-09-02T04:00:11.178Z,7.47
2018-09-02T04:02:39.516Z,7.67
2018-09-02T04:05:07.880Z,7.37
2018-09-02T04:07:36.214Z,8.23
2018-09-02T04:10:04.758Z,15.17
2018-09-02T04:12:33.075Z,9.77
2018-09-02T04:15:01.512Z,11.57
2018-09-02T04:17:29.857Z,8.37
2018-09-02T04:19:58.177Z,8.33
2018-09-02T04:22:26.508Z,7.07
2018-09-02T04:24:54.824Z,8.10
2018-09-02T04:27:23.199Z,8.00
2018-09-02T04:29:51.515Z,8.20
2018-09-02T04:32:19.815Z,8.27
2018-09-02T04:34:48.128Z,7.20
2018-09-02T04:37:16.415Z,7.33
2018-09-02T04:39:44.898Z,7.30
2018-09-02T04:42:13.261Z,7.57
2018-09-02T04:44:41.685Z,7.63
2018-09-02T04:47:10.119Z,8.20
2018-09-02T04:49:38.479Z,7.23
2018-09-02T04:52:06.780Z,6.87
2018-09-02T04:54:35.075Z,7.80
2018-09-02T04:57:03.371Z,7.13
2018-09-02T04:59:31.690Z,7.93
2018-09-02T05:02:00.049Z,6.40
2018-09-02T05:04:28.396Z,8.07
2018-09-02T05:06:56.736Z,7.83
2018-09-02T05:09:25.103Z,8.27
2018-09-02T05:11:53.411Z,8.47
2018-09-02T05:14:21.765Z,10.03
2018-09-02T05:16:50.129Z,8.17
2018-09-02T05:19:18.476Z,7.43
2018-09-02T05:21:46.752Z,6.80
2018-09-02T05:24:15.061Z,6.63
2018-09-02T05:26:43.463Z,6.60
2018-09-02T05:29:11.815Z,6.47
2018-09-02T05:31:40.132Z,6.13
2018-09-02T05:34:08.447Z,6.70
2018-09-02T05:36:36.773Z,6.40
2018-09-02T05:39:07.910Z,5.97
2018-09-02T05:41:36.267Z,5.97
2018-09-02T05:44:04.606Z,6.93
2018-09-02T05:46:32.952Z,7.07
2018-09-02T05:49:01.284Z,6.13
2018-09-02T05:51:29.673Z,6.77
2018-09-02T05:53:58.029Z,6.90
2018-09-02T05:56:26.449Z,6.93
2018-09-02T05:58:54.792Z,6.43
2018-09-02T06:01:23.123Z,6.33
2018-09-02T06:03:51.503Z,6.20
2018-09-02T06:06:19.860Z,6.27
2018-09-02T06:08:48.173Z,6.20
2018-09-02T06:11:16.461Z,6.83
2018-09-02T06:13:44.826Z,6.77
2018-09-02T06:16:13.138Z,6.60
2018-09-02T06:18:41.513Z,5.77
2018-09-02T06:21:09.843Z,6.23
2018-09-02T06:23:38.379Z,6.63
2018-09-02T06:26:06.857Z,7.80
2018-09-02T06:28:35.213Z,6.63
2018-09-02T06:31:03.571Z,6.87
2018-09-02T06:33:31.884Z,6.87
2018-09-02T06:36:00.208Z,7.53
2018-09-02T06:38:28.529Z,8.23
2018-09-02T06:40:56.881Z,8.30
2018-09-02T06:43:25.294Z,7.63
2018-09-02T06:45:53.647Z,7.37
2018-09-02T06:48:21.999Z,6.37
2018-09-02T06:50:50.434Z,6.47
2018-09-02T06:53:18.860Z,7.57
2018-09-02T06:55:47.198Z,6.93
2018-09-02T06:58:15.544Z,5.73
2018-09-02T07:00:43.903Z,6.40
2018-09-02T07:03:12.388Z,6.40
2018-09-02T07:05:41.898Z,6.50
2018-09-02T07:08:11.728Z,5.47
2018-09-02T07:10:40.810Z,5.80
2018-09-02T07:13:09.215Z,5.63
2018-09-02T07:15:37.503Z,5.30
2018-09-02T07:18:05.971Z,5.03
2018-09-02T07:20:34.730Z,5.20
2018-09-02T07:23:03.563Z,4.63
2018-09-02T07:25:32.031Z,4.63
2018-09-02T07:28:00.360Z,3.80
2018-09-02T07:30:29.618Z,5.07
2018-09-02T07:32:57.947Z,4.20
2018-09-02T07:35:26.297Z,6.10
2018-09-02T07:37:54.615Z,4.27
2018-09-02T07:40:23.155Z,4.10
2018-09-02T07:42:51.472Z,4.00
2018-09-02T07:45:20.255Z,5.13
2018-09-02T07:47:48.565Z,4.10
2018-09-02T07:50:16.867Z,5.33
2018-09-02T07:52:45.164Z,3.43
2018-09-02T07:55:14.015Z,3.27
2018-09-02T07:57:42.298Z,3.00
2018-09-02T08:00:11.316Z,3.97
2018-09-02T08:02:40.206Z,3.53
2018-09-02T08:05:08.620Z,3.83
2018-09-02T08:07:36.957Z,2.60
2018-09-02T08:10:06.795Z,2.93
2018-09-02T08:12:35.374Z,2.93
2018-09-02T08:15:03.635Z,2.70
2018-09-02T08:17:31.948Z,2.50
2018-09-02T08:20:00.355Z,3.20
2018-09-02T08:22:29.156Z,2.93
2018-09-02T08:24:57.524Z,3.37
2018-09-02T08:27:25.793Z,3.00
2018-09-02T08:29:54.114Z,3.23
2018-09-02T08:32:22.408Z,3.43
2018-09-02T08:34:50.705Z,3.47
2018-09-02T08:37:19.141Z,3.20
2018-09-02T08:39:47.483Z,2.93
2018-09-02T08:42:15.803Z,3.13
2018-09-02T08:44:44.115Z,2.83
2018-09-02T08:47:12.536Z,2.73
2018-09-02T08:49:40.880Z,3.20
2018-09-02T08:52:09.771Z,3.60
2018-09-02T08:54:38.235Z,3.30
2018-09-02T08:57:07.047Z,3.30
2018-09-02T08:59:35.348Z,3.10
2018-09-02T09:02:03.719Z,3.37
2018-09-02T09:04:32.110Z,2.83
2018-09-02T09:07:00.416Z,3.20
2018-09-02T09:09:28.720Z,3.53
2018-09-02T09:11:57.061Z,3.50
2018-09-02T09:14:25.598Z,3.37
2018-09-02T09:16:54.085Z,3.10
2018-09-02T09:19:22.382Z,3.23
2018-09-02T09:21:50.744Z,2.93
2018-09-02T09:24:19.021Z,3.03
2018-09-02T09:26:47.339Z,2.53
2018-09-02T09:29:15.664Z,3.17
2018-09-02T09:31:43.922Z,2.67
2018-09-02T09:34:12.332Z,2.87
2018-09-02T09:36:40.644Z,3.00
2018-09-02T09:39:10.201Z,3.07
2018-09-02T09:41:38.533Z,3.50
2018-09-02T09:44:07.119Z,2.57
2018-09-02T09:46:35.470Z,2.90
2018-09-02T09:49:04.187Z,2.47
2018-09-02T09:51:32.529Z,1.97
2018-09-02T09:54:00.824Z,2.20
2018-09-02T09:56:29.181Z,2.30
2018-09-02T09:58:57.550Z,2.13
2018-09-02T10:01:25.860Z,2.70
2018-09-02T10:03:54.372Z,2.17
2018-09-02T10:06:22.716Z,2.57
2018-09-02T10:08:51.068Z,2.03
2018-09-02T10:11:19.416Z,2.10
2018-09-02T10:13:47.747Z,2.80
2018-09-02T10:16:16.101Z,2.20
2018-09-02T10:18:44.450Z,2.30
2018-09-02T10:21:12.857Z,2.10
2018-09-02T10:23:41.169Z,2.60
2018-09-02T10:26:09.483Z,2.90
2018-09-02T10:28:37.792Z,2.47
2018-09-02T10:31:06.257Z,2.40
2018-09-02T10:33:34.530Z,2.17
2018-09-02T10:36:02.860Z,1.70
2018-09-02T10:38:31.176Z,2.00
2018-09-02T10:40:59.531Z,1.63
2018-09-02T10:43:27.798Z,1.90
2018-09-02T10:45:56.164Z,2.50
2018-09-02T10:48:24.484Z,2.37
2018-09-02T10:50:52.823Z,3.27
2018-09-02T10:53:22.134Z,1.90
2018-09-02T10:55:50.503Z,2.30
2018-09-02T10:58:19.076Z,3.23
2018-09-02T11:00:47.840Z,1.97
2018-09-02T11:03:16.147Z,3.73
2018-09-02T11:05:44.555Z,3.40
2018-09-02T11:08:14.703Z,2.67
2018-09-02T11:10:43.036Z,1.90
2018-09-02T11:13:11.477Z,2.00
2018-09-02T11:15:40.388Z,2.10
2018-09-02T11:18:09.301Z,2.27
2018-09-02T11:20:39.095Z,2.13
2018-09-02T11:23:07.413Z,7.80
2018-09-02T11:25:35.952Z,2.50
2018-09-02T11:28:04.379Z,2.10
2018-09-02T11:30:32.684Z,1.70
2018-09-02T11:33:00.976Z,2.60
2018-09-02T11:35:29.263Z,2.00
2018-09-02T11:37:57.560Z,2.47
2018-09-02T11:40:25.892Z,1.63
2018-09-02T11:42:54.170Z,1.50
2018-09-02T11:45:22.509Z,1.60
2018-09-02T11:47:50.827Z,1.77
2018-09-02T11:50:19.133Z,1.63
2018-09-02T11:52:47.420Z,1.60
2018-09-02T11:55:15.734Z,1.77
2018-09-02T11:57:44.089Z,1.47
2018-09-02T12:00:12.456Z,1.80
2018-09-02T12:02:40.805Z,2.10
2018-09-02T12:05:09.151Z,1.63
2018-09-02T12:07:37.450Z,1.13
2018-09-02T12:10:05.774Z,1.50
2018-09-02T12:12:34.080Z,1.80
2018-09-02T12:15:02.432Z,1.87
2018-09-02T12:17:30.790Z,1.33
2018-09-02T12:19:59.118Z,1.70
2018-09-02T12:22:27.445Z,1.57
2018-09-02T12:24:55.807Z,1.63
2018-09-02T12:27:24.306Z,1.60
2018-09-02T12:29:52.606Z,1.20
2018-09-02T12:32:20.920Z,1.63
2018-09-02T12:34:49.223Z,3.87
2018-09-02T12:37:17.847Z,1.70
2018-09-02T12:39:46.301Z,2.60
2018-09-02T12:42:14.697Z,1.63
2018-09-02T12:44:42.968Z,1.10
2018-09-02T12:47:11.311Z,1.73
2018-09-02T12:49:39.659Z,1.53
2018-09-02T12:52:07.967Z,1.60
2018-09-02T12:54:36.303Z,2.37
2018-09-02T12:57:04.640Z,1.40
2018-09-02T12:59:33.115Z,1.63
2018-09-02T13:02:01.431Z,1.53
2018-09-02T13:04:29.772Z,1.63
2018-09-02T13:06:59.077Z,1.53
2018-09-02T13:09:27.469Z,2.00
2018-09-02T13:11:55.827Z,2.10
2018-09-02T13:14:24.096Z,1.27
2018-09-02T13:16:52.438Z,2.17
2018-09-02T13:19:20.801Z,1.90
2018-09-02T13:21:49.177Z,4.03
2018-09-02T13:24:17.783Z,1.90
2018-09-02T13:26:46.123Z,1.90
2018-09-02T13:29:14.819Z,1.77
2018-09-02T13:31:44.056Z,1.53
2018-09-02T13:34:12.412Z,1.60
2018-09-02T13:36:40.833Z,1.60
2018-09-02T13:39:09.532Z,1.80
2018-09-02T13:41:40.118Z,1.30
2018-09-02T13:44:08.780Z,1.60
2018-09-02T13:46:37.115Z,1.30
2018-09-02T13:49:05.724Z,1.77
2018-09-02T13:51:34.109Z,1.40
2018-09-02T13:54:02.477Z,1.80
2018-09-02T13:56:30.888Z,1.47
2018-09-02T13:58:59.341Z,1.47
2018-09-02T14:01:27.735Z,1.77
2018-09-02T14:03:57.225Z,1.30
2018-09-02T14:06:25.633Z,1.80
2018-09-02T14:08:53.999Z,1.40
2018-09-02T14:11:23.615Z,1.47
2018-09-02T14:13:52.429Z,1.50
2018-09-02T14:16:20.800Z,1.40
2018-09-02T14:18:49.160Z,3.30
2018-09-02T14:21:17.542Z,1.80
2018-09-02T14:23:46.518Z,1.70
2018-09-02T14:26:15.162Z,1.30
2018-09-02T14:28:43.507Z,1.87
2018-09-02T14:31:11.844Z,4.27
2018-09-02T14:33:40.813Z,1.83
2018-09-02T14:36:09.818Z,1.60
2018-09-02T14:38:38.419Z,1.97
2018-09-02T14:41:06.730Z,1.53
2018-09-02T14:43:35.264Z,2.00
2018-09-02T14:46:03.706Z,1.50
2018-09-02T14:48:32.283Z,1.40
2018-09-02T14:51:00.606Z,1.67
2018-09-02T14:53:28.898Z,1.80
2018-09-02T14:55:57.269Z,2.13
2018-09-02T14:58:25.568Z,1.60
2018-09-02T15:00:55.278Z,6.83
2018-09-02T15:03:23.841Z,6.07
2018-09-02T15:05:52.131Z,1.73
2018-09-02T15:08:20.481Z,2.23
2018-09-02T15:10:48.768Z,1.80
2018-09-02T15:13:17.086Z,2.07
2018-09-02T15:15:45.384Z,1.83
2018-09-02T15:18:13.655Z,1.80
2018-09-02T15:20:42.045Z,1.73
2018-09-02T15:23:10.868Z,3.10
2018-09-02T15:25:39.758Z,2.40
2018-09-02T15:28:08.090Z,1.63
2018-09-02T15:30:36.423Z,1.80
2018-09-02T15:33:04.792Z,1.73
2018-09-02T15:35:33.176Z,1.47
2018-09-02T15:38:01.618Z,1.80
2018-09-02T15:40:30.821Z,2.07
2018-09-02T15:42:59.125Z,1.63
2018-09-02T15:45:27.488Z,2.00
2018-09-02T15:47:55.978Z,4.10
2018-09-02T15:50:24.317Z,1.80
2018-09-02T15:52:53.357Z,1.77
2018-09-02T15:55:22.768Z,2.00
2018-09-02T15:57:51.311Z,1.80
2018-09-02T16:00:19.619Z,1.83
2018-09-02T16:02:48.159Z,1.63
2018-09-02T16:05:16.483Z,1.73
2018-09-02T16:07:45.494Z,1.60
2018-09-02T16:10:14.175Z,5.77
2018-09-02T16:12:42.527Z,1.80
2018-09-02T16:15:10.996Z,2.00
2018-09-02T16:17:39.462Z,2.17
2018-09-02T16:20:08.090Z,1.47
2018-09-02T16:22:36.416Z,1.77
2018-09-02T16:25:04.753Z,1.60
2018-09-02T16:27:33.859Z,1.53
2018-09-02T16:30:02.320Z,1.80
2018-09-02T16:32:32.868Z,2.30
2018-09-02T16:35:02.345Z,2.33
2018-09-02T16:37:30.732Z,2.10
2018-09-02T16:39:59.159Z,1.43
2018-09-02T16:42:28.013Z,1.50
2018-09-02T16:44:56.363Z,2.07
2018-09-02T16:47:24.699Z,1.90
2018-09-02T16:49:53.068Z,1.80
2018-09-02T16:52:21.387Z,2.13
2018-09-02T16:54:49.679Z,2.47
2018-09-02T16:57:18.019Z,2.40
2018-09-02T16:59:46.392Z,2.77
2018-09-02T17:02:14.834Z,2.47
2018-09-02T17:04:45.103Z,2.17
2018-09-02T17:07:13.431Z,1.90
2018-09-02T17:09:41.752Z,2.10
2018-09-02T17:12:10.349Z,1.90
2018-09-02T17:14:38.446Z,1.90
2018-09-02T17:17:06.771Z,1.93
2018-09-02T17:19:37.167Z,1.90
2018-09-02T17:22:05.720Z,2.13
2018-09-02T17:24:34.016Z,1.87
2018-09-02T17:27:02.331Z,1.97
2018-09-02T17:29:30.704Z,1.80
2018-09-02T17:32:00.188Z,2.47
2018-09-02T17:34:28.506Z,1.93
2018-09-02T17:36:56.922Z,1.70
2018-09-02T17:39:25.219Z,2.10
2018-09-02T17:41:53.545Z,2.20
2018-09-02T17:44:21.818Z,2.23
2018-09-02T17:46:50.117Z,2.50
2018-09-02T17:49:18.414Z,2.10
2018-09-02T17:51:46.797Z,2.13
2018-09-02T17:54:15.207Z,2.10
2018-09-02T17:56:43.584Z,2.00
2018-09-02T17:59:11.948Z,1.97
2018-09-02T18:01:40.355Z,2.13
2018-09-02T18:04:08.710Z,2.00
2018-09-02T18:06:37.056Z,2.07
2018-09-02T18:09:07.541Z,2.07
2018-09-02T18:11:35.957Z,2.17
2018-09-02T18:14:04.403Z,2.47
2018-09-02T18:16:32.745Z,2.33
2018-09-02T18:19:01.091Z,1.73
2018-09-02T18:21:29.557Z,2.40
2018-09-02T18:23:58.010Z,2.40
2018-09-02T18:26:29.884Z,2.43
2018-09-02T18:28:58.240Z,2.40
2018-09-02T18:31:26.711Z,3.00
2018-09-02T18:33:55.215Z,2.33
2018-09-02T18:36:24.885Z,2.87
2018-09-02T18:38:53.160Z,2.50
2018-09-02T18:41:21.522Z,10.10
2018-09-02T18:43:49.910Z,2.80
2018-09-02T18:46:18.249Z,2.40
2018-09-02T18:48:46.612Z,2.17
2018-09-02T18:51:14.995Z,2.17
2018-09-02T18:53:43.656Z,2.37
2018-09-02T18:56:12.176Z,2.60
2018-09-02T18:58:43.387Z,2.40
2018-09-02T19:01:11.756Z,2.50
2018-09-02T19:03:40.097Z,3.87
2018-09-02T19:06:12.455Z,3.10
2018-09-02T19:08:41.812Z,2.60
2018-09-02T19:11:12.067Z,2.80
2018-09-02T19:13:42.100Z,2.20
2018-09-02T19:16:10.467Z,2.03
2018-09-02T19:18:42.678Z,2.83
2018-09-02T19:21:11.690Z,5.33
2018-09-02T19:23:40.151Z,2.60
2018-09-02T19:26:08.413Z,2.13
2018-09-02T19:28:36.695Z,2.40
2018-09-02T19:31:05.226Z,2.73
2018-09-02T19:33:33.548Z,2.33
2018-09-02T19:36:01.935Z,2.07
2018-09-02T19:38:33.121Z,2.20
2018-09-02T19:41:01.648Z,2.47
2018-09-02T19:43:30.051Z,2.70
2018-09-02T19:45:58.567Z,3.03
2018-09-02T19:48:26.956Z,2.60
2018-09-02T19:50:55.513Z,2.33
2018-09-02T19:53:23.883Z,2.80
2018-09-02T19:55:52.242Z,2.53
2018-09-02T19:58:20.561Z,2.30
2018-09-02T20:00:48.893Z,2.30
2018-09-02T20:03:18.028Z,2.57
2018-09-02T20:05:46.884Z,1.97
2018-09-02T20:08:16.066Z,2.37
2018-09-02T20:10:44.550Z,2.00
2018-09-02T20:13:12.846Z,2.67
2018-09-02T20:15:47.681Z,2.13
2018-09-02T20:18:16.201Z,2.40
2018-09-02T20:20:44.548Z,2.33
2018-09-02T20:23:12.839Z,2.03
2018-09-02T20:25:42.427Z,2.70
2018-09-02T20:28:10.856Z,4.00
2018-09-02T20:30:39.192Z,2.70
2018-09-02T20:33:07.607Z,3.27
2018-09-02T20:35:36.008Z,3.07
2018-09-02T20:38:04.387Z,2.10
2018-09-02T20:40:32.721Z,2.33
2018-09-02T20:43:01.013Z,2.03
2018-09-02T20:45:29.382Z,2.80
2018-09-02T20:47:57.756Z,2.50
2018-09-02T20:50:26.220Z,2.50
2018-09-02T20:52:54.551Z,2.17
2018-09-02T20:55:22.950Z,2.63
2018-09-02T20:57:51.249Z,2.90
2018-09-02T21:00:19.689Z,2.67
2018-09-02T21:02:48.027Z,2.23
2018-09-02T21:05:16.780Z,2.67
2018-09-02T21:07:45.308Z,2.63
2018-09-02T21:10:13.639Z,2.77
2018-09-02T21:12:41.966Z,2.70
2018-09-02T21:15:09.960Z,3.17
2018-09-02T21:17:38.252Z,2.33
2018-09-02T21:20:06.557Z,2.20
2018-09-02T21:22:34.859Z,2.30
2018-09-02T21:25:03.407Z,2.47
2018-09-02T21:27:31.747Z,3.00
2018-09-02T21:30:00.055Z,2.73
2018-09-02T21:32:28.376Z,2.20
2018-09-02T21:34:56.679Z,2.60
2018-09-02T21:37:24.971Z,2.30
2018-09-02T21:39:53.332Z,2.43
2018-09-02T21:42:21.633Z,2.73
2018-09-02T21:44:49.972Z,2.53
2018-09-02T21:47:18.407Z,2.90
2018-09-02T21:49:46.997Z,2.40
2018-09-02T21:52:15.496Z,2.40
2018-09-02T21:54:44.085Z,2.50
2018-09-02T21:57:12.413Z,2.63
2018-09-02T21:59:40.803Z,3.07
2018-09-02T22:02:09.092Z,2.50
2018-09-02T22:04:37.492Z,3.13
2018-09-02T22:07:07.522Z,3.10
2018-09-02T22:09:35.925Z,2.80
2018-09-02T22:12:04.257Z,2.90
2018-09-02T22:14:32.582Z,3.10
2018-09-02T22:17:00.856Z,2.70
2018-09-02T22:19:29.165Z,3.37
2018-09-02T22:21:57.478Z,3.10
2018-09-02T22:24:25.767Z,2.87
2018-09-02T22:26:54.079Z,2.90
2018-09-02T22:29:22.365Z,3.63
2018-09-02T22:31:50.675Z,3.73
2018-09-02T22:34:18.991Z,3.17
2018-09-02T22:36:47.331Z,2.90
2018-09-02T22:39:15.652Z,3.33
2018-09-02T22:41:44.014Z,3.30
2018-09-02T22:44:12.327Z,3.43
2018-09-02T22:46:40.676Z,3.63
2018-09-02T22:49:08.990Z,3.50
2018-09-02T22:51:37.318Z,3.47
2018-09-02T22:54:05.647Z,2.93
2018-09-02T22:56:33.952Z,3.33
2018-09-02T22:59:02.272Z,3.90
2018-09-02T23:01:30.548Z,3.20
2018-09-02T23:03:58.872Z,3.30
2018-09-02T23:06:27.196Z,3.80
2018-09-02T23:08:57.867Z,3.43
2018-09-02T23:11:26.135Z,3.33
2018-09-02T23:13:54.635Z,3.90
2018-09-02T23:16:22.914Z,3.40
2018-09-02T23:18:51.204Z,3.57
2018-09-02T23:21:19.528Z,3.40
2018-09-02T23:23:48.741Z,3.50
2018-09-02T23:26:19.698Z,4.13
2018-09-02T23:28:48.032Z,4.10
2018-09-02T23:31:16.307Z,3.83
2018-09-02T23:33:45.548Z,3.60
2018-09-02T23:36:13.939Z,4.27
2018-09-02T23:38:42.289Z,3.60
2018-09-02T23:41:10.606Z,4.17
2018-09-02T23:43:38.902Z,3.87
2018-09-02T23:46:07.191Z,4.03
2018-09-02T23:48:35.613Z,4.57
2018-09-02T23:51:03.907Z,4.13
2018-09-02T23:53:32.195Z,3.97
2018-09-02T23:56:00.501Z,4.37
2018-09-02T23:58:28.959Z,3.63
